Time;durP1;ratioP1;P1;durP2;ratioP2;P2;SDS_P1;SDS_P2;PMS_P1;PMS_P2;Temp;Humidity;BMP_temperature;BMP_pressure;BME280_temperature;BME280_humidity;BME280_pressure;Samples;Min_cycle;Max_cycle;Signal;HPM_P1;HPM_P2
2023/10/08 00:01:19;;;;;;;12.35;3.75;;;19.20;99.90;;;;;;5053093;28;20091;-67
2023/10/08 00:03:49;;;;;;;15.63;4.80;;;19.10;99.90;;;;;;5052273;28;20049;-70
2023/10/08 00:06:20;;;;;;;14.80;4.40;;;19.10;99.90;;;;;;5053007;28;20044;-70
2023/10/08 00:08:46;;;;;;;17.20;5.13;;;19.10;99.90;;;;;;5050876;28;20029;-70
2023/10/08 00:11:12;;;;;;;17.42;4.63;;;19.10;99.90;;;;;;5052734;28;20021;-70
2023/10/08 00:13:41;;;;;;;13.88;4.50;;;19.10;99.90;;;;;;5052000;28;20043;-70
2023/10/08 00:16:10;;;;;;;18.50;4.60;;;19.10;99.90;;;;;;5052711;28;20025;-70
2023/10/08 00:18:38;;;;;;;18.95;4.78;;;19.10;99.90;;;;;;5052067;28;20028;-70
2023/10/08 00:23:41;;;;;;;17.38;5.53;;;19.10;99.90;;;;;;5052394;28;20044;-70
2023/10/08 00:26:07;;;;;;;15.95;5.65;;;19.10;99.90;;;;;;5052505;28;20450;-70
2023/10/08 00:28:33;;;;;;;16.83;5.43;;;19.10;99.90;;;;;;5051947;28;20502;-70
2023/10/08 00:31:12;;;;;;;17.52;5.53;;;19.00;99.90;;;;;;5051243;28;20052;-70
2023/10/08 00:33:44;;;;;;;16.05;4.82;;;19.00;99.90;;;;;;5051968;28;20027;-70
2023/10/08 00:36:19;;;;;;;18.27;5.35;;;19.10;99.90;;;;;;5051135;28;20466;-70
2023/10/08 00:38:54;;;;;;;15.45;4.97;;;19.10;99.90;;;;;;5051651;28;20016;-70
2023/10/08 00:41:21;;;;;;;14.80;4.20;;;19.10;99.90;;;;;;5052196;28;20116;-70
2023/10/08 00:43:48;;;;;;;19.83;5.22;;;19.10;99.90;;;;;;5051551;28;20044;-70
2023/10/08 00:46:29;;;;;;;18.77;5.80;;;19.10;99.90;;;;;;5052279;28;20020;-70
2023/10/08 00:48:56;;;;;;;11.35;4.47;;;19.10;99.90;;;;;;5051350;28;20376;-70
2023/10/08 00:53:58;;;;;;;19.90;5.00;;;19.10;99.90;;;;;;5051466;28;20029;-70
2023/10/08 00:56:56;;;;;;;15.95;4.30;;;19.10;99.90;;;;;;5052120;28;20048;-70
2023/10/08 00:59:16;;;;;;;15.35;4.78;;;19.00;99.90;;;;;;5051729;28;20029;-70
2023/10/08 01:01:46;;;;;;;12.40;4.60;;;19.00;99.90;;;;;;5052019;28;20013;-70
2023/10/08 01:04:23;;;;;;;15.30;5.20;;;19.00;99.90;;;;;;5051972;28;20036;-70
2023/10/08 01:06:59;;;;;;;15.95;4.95;;;19.00;99.90;;;;;;5052040;28;20029;-70
2023/10/08 01:09:37;;;;;;;23.25;5.50;;;19.00;99.90;;;;;;5049982;28;20028;-70
2023/10/08 01:12:23;;;;;;;20.13;5.47;;;19.00;99.90;;;;;;5052004;28;20113;-70
2023/10/08 01:14:53;;;;;;;16.02;4.50;;;18.90;99.90;;;;;;5051120;28;20029;-70
2023/10/08 01:17:24;;;;;;;14.07;4.65;;;19.00;99.90;;;;;;5051774;28;20082;-70
2023/10/08 01:22:34;;;;;;;22.65;6.80;;;18.90;99.90;;;;;;5051792;28;19916;-70
2023/10/08 01:25:01;;;;;;;17.33;5.38;;;18.90;99.90;;;;;;5051069;28;20021;-70
2023/10/08 01:27:34;;;;;;;19.85;6.07;;;18.90;99.90;;;;;;5051601;28;20063;-70
2023/10/08 01:30:11;;;;;;;22.48;8.48;;;18.90;99.90;;;;;;5051072;28;20494;-70
2023/10/08 01:32:37;;;;;;;29.25;8.02;;;18.80;99.90;;;;;;5051735;28;20025;-70
2023/10/08 01:35:05;;;;;;;23.10;8.32;;;18.80;99.90;;;;;;5050013;28;20078;-70
2023/10/08 01:37:33;;;;;;;36.28;12.43;;;18.80;99.90;;;;;;5050401;28;20535;-70
2023/10/08 01:40:03;;;;;;;27.85;10.75;;;18.80;99.90;;;;;;5049507;28;20384;-70
2023/10/08 01:42:32;;;;;;;25.15;9.77;;;18.70;99.90;;;;;;5052840;28;20075;-70
2023/10/08 01:44:58;;;;;;;22.30;7.82;;;18.70;99.90;;;;;;5055016;28;20055;-70
2023/10/08 01:47:25;;;;;;;23.95;8.02;;;18.70;99.90;;;;;;5055637;28;20407;-70
2023/10/08 01:49:57;;;;;;;21.70;7.28;;;18.60;99.90;;;;;;5053313;28;20049;-70
2023/10/08 01:52:23;;;;;;;23.02;7.72;;;18.60;99.90;;;;;;5054217;28;20167;-70
2023/10/08 01:54:49;;;;;;;23.52;6.97;;;18.60;99.90;;;;;;5053375;28;20071;-70
2023/10/08 01:57:16;;;;;;;18.45;6.72;;;18.50;99.90;;;;;;5055616;28;20017;-70
2023/10/08 01:59:44;;;;;;;18.00;6.40;;;18.50;99.90;;;;;;5054720;28;20021;-70
2023/10/08 02:02:10;;;;;;;18.05;6.05;;;18.50;99.90;;;;;;5053769;28;20574;-69
2023/10/08 02:04:36;;;;;;;20.25;5.88;;;18.50;99.90;;;;;;5053201;28;20052;-70
2023/10/08 02:07:07;;;;;;;23.80;5.55;;;18.50;99.90;;;;;;5055100;28;20118;-70
2023/10/08 02:09:34;;;;;;;20.30;5.70;;;18.50;99.90;;;;;;5054604;28;20021;-70
2023/10/08 02:12:00;;;;;;;17.15;6.20;;;18.50;99.90;;;;;;5054867;28;20024;-69
2023/10/08 02:14:28;;;;;;;16.88;5.07;;;18.50;99.90;;;;;;5054479;28;20025;-70
2023/10/08 02:16:56;;;;;;;19.83;5.85;;;18.50;99.90;;;;;;5055025;28;20021;-70
2023/10/08 02:19:28;;;;;;;16.52;5.55;;;18.50;99.90;;;;;;5054263;28;20025;-70
2023/10/08 02:21:55;;;;;;;19.13;6.35;;;18.50;99.90;;;;;;5054742;28;20021;-70
2023/10/08 02:24:24;;;;;;;16.17;5.20;;;18.50;99.90;;;;;;5054058;28;20028;-70
2023/10/08 02:26:56;;;;;;;12.40;4.50;;;18.50;99.90;;;;;;5054697;28;20100;-70
2023/10/08 02:29:30;;;;;;;19.00;5.68;;;18.50;99.90;;;;;;5054033;28;20053;-70
2023/10/08 02:31:56;;;;;;;18.60;5.60;;;18.50;99.90;;;;;;5054693;28;20029;-70
2023/10/08 02:34:22;;;;;;;15.80;5.57;;;18.50;99.90;;;;;;5053902;28;20059;-70
2023/10/08 02:36:48;;;;;;;15.30;5.45;;;18.50;99.90;;;;;;5054530;28;20053;-69
2023/10/08 02:39:34;;;;;;;18.15;5.85;;;18.50;99.90;;;;;;5054205;28;20051;-70
2023/10/08 02:42:00;;;;;;;15.40;5.60;;;18.40;99.90;;;;;;5054364;28;20031;-70
2023/10/08 02:44:27;;;;;;;18.23;6.18;;;18.40;99.90;;;;;;5053826;28;20020;-70
2023/10/08 02:46:52;;;;;;;17.75;6.60;;;18.40;99.90;;;;;;5054315;28;20100;-69
2023/10/08 02:49:24;;;;;;;12.45;5.50;;;18.30;99.90;;;;;;5053576;28;20124;-70
2023/10/08 02:51:54;;;;;;;14.02;5.07;;;18.30;99.90;;;;;;5054267;28;20510;-70
2023/10/08 02:54:31;;;;;;;17.15;5.95;;;18.30;99.90;;;;;;5051528;28;20053;-70
2023/10/08 02:57:02;;;;;;;15.30;5.43;;;18.20;99.90;;;;;;5054155;28;20025;-70
2023/10/08 02:59:49;;;;;;;18.15;6.03;;;18.10;99.90;;;;;;5053511;28;20604;-70
2023/10/08 03:02:21;;;;;;;12.52;5.47;;;18.20;99.90;;;;;;5052717;28;20118;-70
2023/10/08 03:04:47;;;;;;;15.25;5.82;;;18.20;99.90;;;;;;5053394;28;20074;-70
2023/10/08 03:07:32;;;;;;;16.90;5.82;;;18.20;99.90;;;;;;5054096;28;20083;-70
2023/10/08 03:10:05;;;;;;;13.50;5.47;;;18.20;99.90;;;;;;5053274;28;20021;-70
2023/10/08 03:12:32;;;;;;;16.60;6.20;;;18.20;99.90;;;;;;5054332;28;20029;-70
2023/10/08 03:15:06;;;;;;;17.50;5.90;;;18.10;99.90;;;;;;5053342;28;20036;-70
2023/10/08 03:17:48;;;;;;;17.20;6.63;;;18.00;99.90;;;;;;5053945;28;20021;-70
2023/10/08 03:20:37;;;;;;;14.55;5.43;;;18.00;99.90;;;;;;5053113;28;20025;-70
2023/10/08 03:23:13;;;;;;;12.20;4.40;;;18.00;99.90;;;;;;5053860;28;20446;-70
2023/10/08 03:25:41;;;;;;;16.58;6.20;;;18.00;99.90;;;;;;5052951;28;20471;-70
2023/10/08 03:28:09;;;;;;;16.92;6.07;;;18.00;99.90;;;;;;5052243;28;20108;-70
2023/10/08 03:30:47;;;;;;;15.60;6.03;;;18.00;99.90;;;;;;5052963;28;20067;-70
2023/10/08 03:33:21;;;;;;;14.77;5.47;;;18.00;99.90;;;;;;5052473;28;20036;-70
2023/10/08 03:35:49;;;;;;;18.02;6.00;;;18.00;99.90;;;;;;5052830;28;20491;-70
2023/10/08 03:38:21;;;;;;;14.27;5.45;;;18.00;99.90;;;;;;5053416;28;20029;-70
2023/10/08 03:40:49;;;;;;;16.88;6.40;;;18.00;99.90;;;;;;5052809;28;20029;-70
2023/10/08 03:43:23;;;;;;;16.10;5.63;;;18.10;99.90;;;;;;5053277;28;20025;-70
2023/10/08 03:45:59;;;;;;;16.00;6.38;;;18.10;99.90;;;;;;5052670;28;20017;-70
2023/10/08 03:48:25;;;;;;;15.40;5.78;;;18.10;99.90;;;;;;5053290;28;20036;-70
2023/10/08 03:51:06;;;;;;;19.90;5.93;;;18.00;99.90;;;;;;5052386;28;20090;-70
2023/10/08 03:53:57;;;;;;;;;;;18.00;99.90;;;;;;5052265;28;20032;-70
2023/10/08 03:56:20;;;;;;;14.50;5.80;;;18.00;99.90;;;;;;5052541;28;20012;-70
2023/10/08 03:58:46;;;;;;;19.35;5.75;;;17.90;99.90;;;;;;5053037;28;20048;-70
2023/10/08 04:01:18;;;;;;;15.77;5.40;;;17.90;99.90;;;;;;5052214;28;20369;-70
2023/10/08 04:03:59;;;;;;;21.40;6.15;;;17.90;99.90;;;;;;5051620;28;20021;-70
2023/10/08 04:06:30;;;;;;;15.90;6.78;;;17.90;99.90;;;;;;5050974;28;20537;-70
2023/10/08 04:12:10;;;;;;;17.35;5.80;;;18.00;99.90;;;;;;5052717;28;20025;-70
2023/10/08 04:14:28;;;;;;;11.15;5.20;;;18.00;99.90;;;;;;5051791;28;20029;-70
2023/10/08 04:16:53;;;;;;;16.65;5.72;;;18.00;99.90;;;;;;5052569;28;20025;-70
2023/10/08 04:19:26;;;;;;;18.83;5.35;;;18.00;99.90;;;;;;5050853;28;20022;-70
2023/10/08 04:21:55;;;;;;;18.58;6.57;;;18.10;99.90;;;;;;5052413;28;20035;-70
2023/10/08 04:24:29;;;;;;;14.40;5.85;;;18.10;99.90;;;;;;5052095;28;20066;-70
2023/10/08 04:26:58;;;;;;;18.23;6.40;;;18.10;99.90;;;;;;5051220;28;20508;-70
2023/10/08 04:29:25;;;;;;;15.63;6.05;;;18.10;99.90;;;;;;5051935;28;20021;-70
2023/10/08 04:32:01;;;;;;;16.77;6.50;;;18.10;99.90;;;;;;5052158;28;20020;-70
2023/10/08 04:34:28;;;;;;;15.75;6.22;;;18.10;99.90;;;;;;5050974;28;20079;-70
2023/10/08 04:36:54;;;;;;;21.05;6.53;;;18.10;99.90;;;;;;5052146;28;20032;-70
2023/10/08 04:39:31;;;;;;;12.75;5.22;;;18.10;99.90;;;;;;5052042;28;20033;-70
2023/10/08 04:42:10;;;;;;;15.07;6.55;;;18.10;99.90;;;;;;5052305;28;20459;-70
2023/10/08 04:44:39;;;;;;;17.77;6.75;;;18.10;99.90;;;;;;5051887;28;20044;-70
2023/10/08 04:47:06;;;;;;;14.45;5.78;;;18.10;99.90;;;;;;5052434;28;20049;-70
2023/10/08 04:49:34;;;;;;;13.07;5.80;;;18.20;99.90;;;;;;5051752;28;20041;-70
2023/10/08 04:52:16;;;;;;;18.08;6.15;;;18.20;99.90;;;;;;5052111;28;20391;-70
2023/10/08 04:54:51;;;;;;;17.38;5.97;;;18.20;99.90;;;;;;5051385;28;20033;-70
2023/10/08 04:57:18;;;;;;;16.70;5.75;;;18.20;99.90;;;;;;5050830;28;20025;-70
2023/10/08 04:59:46;;;;;;;14.93;5.28;;;18.20;99.90;;;;;;5051508;28;20020;-70
2023/10/08 05:13:15;;;;;;;13.25;4.15;;;18.10;99.90;;;;;;5051897;28;20036;-70
2023/10/08 05:15:42;;;;;;;17.75;4.50;;;18.00;99.90;;;;;;5051349;28;20044;-70
2023/10/08 05:23:20;;;;;;;14.60;3.67;;;17.90;99.90;;;;;;5051798;28;20047;-70
2023/10/08 05:26:09;;;;;;;22.23;4.60;;;17.90;99.90;;;;;;5049684;28;20020;-70
2023/10/08 05:34:17;;;;;;;14.38;3.88;;;17.80;99.90;;;;;;5051655;28;20204;-70
2023/10/08 05:39:40;;;;;;;14.57;4.35;;;17.70;99.90;;;;;;5051304;28;20036;-70
2023/10/08 05:42:16;;;;;;;17.27;4.70;;;17.70;99.90;;;;;;5051328;28;20025;-70
2023/10/08 05:47:38;;;;;;;10.93;4.10;;;17.60;99.90;;;;;;5051850;28;20087;-70
2023/10/08 05:55:26;;;;;;;13.32;4.35;;;17.50;99.90;;;;;;5050775;28;20033;-70
2023/10/08 05:58:13;;;;;;;9.32;3.65;;;17.40;99.90;;;;;;5050118;28;20028;-70
2023/10/08 06:14:13;;;;;;;7.13;2.85;;;17.30;99.90;;;;;;5051286;28;20537;-70
2023/10/08 06:16:43;;;;;;;8.65;3.00;;;17.20;99.90;;;;;;5050744;28;20418;-69
2023/10/08 06:19:11;;;;;;;8.55;3.17;;;17.20;99.90;;;;;;5051370;28;20100;-69
2023/10/08 06:21:39;;;;;;;11.52;2.75;;;17.20;99.90;;;;;;5050358;28;20025;-69
2023/10/08 06:24:09;;;;;;;9.80;3.08;;;17.20;99.90;;;;;;5051117;28;20471;-69
2023/10/08 06:26:48;;;;;;;10.90;2.75;;;17.10;99.90;;;;;;5050981;28;20448;-69
2023/10/08 06:29:27;;;;;;;8.80;3.05;;;17.10;99.90;;;;;;5051816;28;20489;-69
2023/10/08 06:32:02;;;;;;;5.15;2.38;;;17.10;99.90;;;;;;5054246;28;20032;-69
2023/10/08 06:34:31;;;;;;;8.38;3.00;;;17.00;99.90;;;;;;5054398;28;20100;-69
2023/10/08 06:36:59;;;;;;;9.13;3.00;;;17.00;99.90;;;;;;5054081;28;20047;-69
2023/10/08 06:39:25;;;;;;;9.27;2.92;;;17.00;99.90;;;;;;5054518;28;20170;-69
2023/10/08 06:41:56;;;;;;;9.82;2.60;;;17.00;99.90;;;;;;5053991;28;20025;-69
2023/10/08 06:44:22;;;;;;;8.93;2.78;;;16.90;99.90;;;;;;5054428;28;20067;-69
2023/10/08 06:46:52;;;;;;;4.80;2.35;;;16.90;99.90;;;;;;5053760;28;20017;-69
2023/10/08 06:49:18;;;;;;;7.13;2.80;;;16.90;99.90;;;;;;5053961;28;20056;-69
2023/10/08 06:51:44;;;;;;;7.95;2.72;;;16.90;99.90;;;;;;5052323;28;20044;-69
2023/10/08 06:54:13;;;;;;;7.43;2.95;;;16.80;99.90;;;;;;5054422;28;20499;-70
2023/10/08 06:56:45;;;;;;;8.60;2.80;;;16.80;99.90;;;;;;5053737;28;20104;-69
2023/10/08 06:59:12;;;;;;;4.28;2.15;;;16.80;99.90;;;;;;5054151;28;20025;-69
2023/10/08 07:01:45;;;;;;;5.40;2.50;;;16.80;99.90;;;;;;5052177;28;20031;-69
2023/10/08 07:04:12;;;;;;;5.53;2.22;;;16.80;99.90;;;;;;5054106;28;20040;-69
2023/10/08 07:06:42;;;;;;;10.70;3.10;;;16.80;99.90;;;;;;5053357;28;20387;-69
2023/10/08 07:09:22;;;;;;;7.85;2.60;;;16.80;99.90;;;;;;5054086;28;20028;-69
2023/10/08 07:11:54;;;;;;;9.27;2.88;;;16.80;99.90;;;;;;5053383;28;20132;-69
2023/10/08 07:14:22;;;;;;;7.18;2.95;;;16.70;99.90;;;;;;5052636;28;20509;-70
2023/10/08 07:16:52;;;;;;;4.32;2.33;;;16.70;99.90;;;;;;5053166;28;20017;-69
2023/10/08 07:19:18;;;;;;;5.13;2.70;;;16.70;99.90;;;;;;5053855;28;20035;-69
2023/10/08 07:21:46;;;;;;;6.07;2.95;;;16.70;99.90;;;;;;5053094;28;20541;-69
2023/10/08 07:24:17;;;;;;;8.02;3.30;;;16.70;99.90;;;;;;5053629;28;20024;-69
2023/10/08 07:26:46;;;;;;;;;;;16.70;99.90;;;;;;5053453;28;20013;-69
2023/10/08 07:29:16;;;;;;;5.45;3.17;;;16.70;99.90;;;;;;5053557;28;19906;-69
2023/10/08 07:31:47;;;;;;;6.38;3.63;;;16.70;99.90;;;;;;5053189;28;20143;-69
2023/10/08 07:34:17;;;;;;;5.72;3.47;;;16.60;99.90;;;;;;5053562;28;20032;-69
2023/10/08 07:36:47;;;;;;;7.10;4.00;;;16.60;99.90;;;;;;5051435;28;20029;-69
2023/10/08 07:41:53;;;;;;;6.80;3.53;;;16.60;99.90;;;;;;5052098;28;20064;-69
2023/10/08 07:44:23;;;;;;;;;;;16.60;99.90;;;;;;5053956;28;20428;-69
2023/10/08 07:46:56;;;;;;;7.05;4.15;;;16.60;99.90;;;;;;5051278;28;19909;-69
2023/10/08 07:49:23;;;;;;;5.70;3.25;;;16.60;99.90;;;;;;5052934;28;20045;-70
2023/10/08 07:51:52;;;;;;;6.97;3.97;;;16.60;99.90;;;;;;5052623;28;20029;-70
2023/10/08 07:54:23;;;;;;;6.40;4.32;;;16.60;99.90;;;;;;5051821;28;20053;-70
2023/10/08 07:56:51;;;;;;;10.13;4.10;;;16.60;99.90;;;;;;5051139;28;20025;-70
2023/10/08 07:59:18;;;;;;;10.52;4.78;;;16.60;99.90;;;;;;5053213;28;20079;-70
2023/10/08 08:01:44;;;;;;;8.88;4.78;;;16.60;99.90;;;;;;5052271;28;20025;-70
2023/10/08 08:04:11;;;;;;;6.22;3.83;;;16.50;99.90;;;;;;5053083;28;20104;-70
2023/10/08 08:06:39;;;;;;;6.63;3.97;;;16.60;99.90;;;;;;5052164;28;20479;-70
2023/10/08 08:09:19;;;;;;;5.70;4.00;;;16.50;99.90;;;;;;5052879;28;20036;-70
2023/10/08 08:11:48;;;;;;;6.78;4.20;;;16.50;99.90;;;;;;5052262;28;20595;-69
2023/10/08 08:14:17;;;;;;;7.43;4.32;;;16.50;99.90;;;;;;5052841;28;20021;-70
2023/10/08 08:16:48;;;;;;;6.50;4.25;;;16.60;99.90;;;;;;5052048;28;20029;-69
2023/10/08 08:19:16;;;;;;;10.27;5.15;;;16.50;99.90;;;;;;5052663;28;20101;-70
2023/10/08 08:21:45;;;;;;;8.23;4.40;;;16.50;99.90;;;;;;5051929;28;20029;-69
2023/10/08 08:24:28;;;;;;;5.88;3.55;;;16.50;99.90;;;;;;5052536;28;20025;-70
2023/10/08 08:27:01;;;;;;;13.63;3.58;;;16.50;99.90;;;;;;5051918;28;20028;-70
2023/10/08 08:29:28;;;;;;;7.07;3.67;;;16.50;99.90;;;;;;5052545;28;20025;-70
2023/10/08 08:31:56;;;;;;;8.00;3.95;;;16.50;99.90;;;;;;5051727;28;20028;-70
2023/10/08 08:34:23;;;;;;;7.40;3.15;;;16.50;99.90;;;;;;5052687;28;20247;-70
2023/10/08 08:36:49;;;;;;;6.55;4.00;;;16.50;99.90;;;;;;5051795;28;20029;-70
2023/10/08 08:39:32;;;;;;;5.53;3.40;;;16.40;99.90;;;;;;5051117;28;20021;-70
2023/10/08 08:42:04;;;;;;;7.82;3.28;;;16.40;99.90;;;;;;5050465;28;20521;-70
2023/10/08 08:44:31;;;;;;;6.72;3.20;;;16.40;99.90;;;;;;5052303;28;20025;-70
2023/10/08 08:47:04;;;;;;;7.28;3.97;;;16.40;99.90;;;;;;5051878;28;20373;-70
2023/10/08 08:49:33;;;;;;;8.48;3.35;;;16.40;99.90;;;;;;5051917;28;20071;-70
2023/10/08 08:52:00;;;;;;;7.70;3.30;;;16.40;99.90;;;;;;5050797;28;20021;-70
2023/10/08 08:54:30;;;;;;;6.85;3.10;;;16.40;99.90;;;;;;5050903;28;20029;-70
2023/10/08 08:57:02;;;;;;;5.93;3.17;;;16.40;99.90;;;;;;5051510;28;20112;-70
2023/10/08 08:59:30;;;;;;;7.22;2.83;;;16.40;99.90;;;;;;5052326;28;20096;-70
2023/10/08 09:02:00;;;;;;;5.70;3.40;;;16.40;99.90;;;;;;5051225;28;20533;-70
2023/10/08 09:04:32;;;;;;;7.57;3.27;;;16.40;99.90;;;;;;5052026;28;20114;-70
2023/10/08 09:07:04;;;;;;;5.22;2.92;;;16.40;99.90;;;;;;5050117;28;20584;-70
2023/10/08 09:09:34;;;;;;;6.20;3.20;;;16.40;99.90;;;;;;5050618;28;20086;-70
2023/10/08 09:12:00;;;;;;;5.20;2.88;;;16.50;99.90;;;;;;5051568;28;20398;-70
2023/10/08 09:14:29;;;;;;;6.70;2.78;;;16.50;99.90;;;;;;5052209;28;20025;-70
2023/10/08 09:16:56;;;;;;;5.68;2.65;;;16.50;99.90;;;;;;5051627;28;20108;-70
2023/10/08 09:19:24;;;;;;;6.15;2.42;;;16.50;99.90;;;;;;5052113;28;20025;-70
2023/10/08 09:22:04;;;;;;;6.03;2.47;;;16.50;99.90;;;;;;5051139;28;20064;-69
2023/10/08 09:24:41;;;;;;;5.43;2.20;;;16.50;99.90;;;;;;5050506;28;20477;-70
2023/10/08 09:27:08;;;;;;;6.22;2.50;;;16.40;99.90;;;;;;5051558;28;20021;-70
2023/10/08 09:29:40;;;;;;;5.32;2.28;;;16.40;99.90;;;;;;5051927;28;20475;-70
2023/10/08 09:32:09;;;;;;;6.65;2.20;;;16.40;99.90;;;;;;5051094;28;20070;-70
2023/10/08 09:34:36;;;;;;;5.95;2.13;;;16.40;99.90;;;;;;5051606;28;20398;-70
2023/10/08 09:37:02;;;;;;;5.50;2.00;;;16.50;99.90;;;;;;5050907;28;20045;-70
2023/10/08 09:39:33;;;;;;;5.00;1.80;;;16.50;99.90;;;;;;5050556;28;20395;-70
2023/10/08 09:42:03;;;;;;;4.00;1.80;;;16.50;99.90;;;;;;5051088;28;20034;-70
2023/10/08 09:44:29;;;;;;;5.38;1.80;;;16.50;99.90;;;;;;5051587;28;20070;-70
2023/10/08 09:47:10;;;;;;;3.65;1.60;;;16.50;99.90;;;;;;5051041;28;20017;-70
2023/10/08 09:49:48;;;;;;;5.57;2.13;;;16.60;99.90;;;;;;5051473;28;20041;-70
2023/10/08 09:52:16;;;;;;;4.25;1.83;;;16.60;99.90;;;;;;5051070;28;20087;-70
2023/10/08 09:55:11;;;;;;;5.97;2.13;;;16.60;99.90;;;;;;5051611;28;20028;-70
2023/10/08 09:57:37;;;;;;;4.60;2.03;;;16.70;99.90;;;;;;5050613;28;20029;-69
2023/10/08 10:00:14;;;;;;;4.35;1.50;;;16.70;99.90;;;;;;5051726;28;20079;-70
2023/10/08 10:02:42;;;;;;;3.67;1.60;;;16.70;99.90;;;;;;5050027;28;20024;-70
2023/10/08 10:05:11;;;;;;;6.28;1.60;;;16.70;99.90;;;;;;5054795;28;20433;-70
2023/10/08 10:07:40;;;;;;;6.05;1.60;;;16.70;99.90;;;;;;5054892;28;20021;-70
2023/10/08 10:10:26;;;;;;;7.68;2.45;;;16.80;99.90;;;;;;5055061;28;20036;-70
2023/10/08 10:12:51;;;;;;;5.15;1.60;;;16.70;99.90;;;;;;5054788;28;20025;-70
2023/10/08 10:15:21;;;;;;;4.05;1.50;;;16.80;99.90;;;;;;5054878;28;20566;-70
2023/10/08 10:17:49;;;;;;;8.80;2.03;;;16.80;99.90;;;;;;5054776;28;20017;-70
2023/10/08 10:20:16;;;;;;;5.18;1.90;;;16.80;99.90;;;;;;5054773;28;20514;-70
2023/10/08 10:22:43;;;;;;;5.28;1.80;;;16.80;99.90;;;;;;5054421;28;20028;-70
2023/10/08 10:25:17;;;;;;;3.08;1.42;;;16.80;99.90;;;;;;5054986;28;20079;-70
2023/10/08 10:27:58;;;;;;;3.42;1.30;;;16.90;99.90;;;;;;5054416;28;20017;-70
2023/10/08 10:30:27;;;;;;;4.50;1.70;;;16.90;99.90;;;;;;5054468;28;20059;-70
2023/10/08 10:32:54;;;;;;;5.90;1.60;;;16.90;99.90;;;;;;5054451;28;20032;-70
2023/10/08 10:35:19;;;;;;;4.78;1.80;;;16.90;99.90;;;;;;5054279;28;20096;-70
2023/10/08 10:37:51;;;;;;;4.55;1.95;;;17.00;99.90;;;;;;5054274;28;20555;-70
2023/10/08 10:40:39;;;;;;;4.25;1.70;;;17.00;99.90;;;;;;5054468;28;20047;-70
2023/10/08 10:43:15;;;;;;;5.22;2.28;;;17.00;99.90;;;;;;5054343;28;20052;-70
2023/10/08 10:45:47;;;;;;;4.63;2.30;;;17.00;99.90;;;;;;5054103;28;20100;-70
2023/10/08 10:53:27;;;;;;;4.13;2.10;;;17.00;99.90;;;;;;5054729;28;20580;-70
2023/10/08 10:56:09;;;;;;;5.40;1.70;;;17.10;99.90;;;;;;5052607;28;20036;-70
2023/10/08 10:58:39;;;;;;;4.70;1.83;;;17.10;99.90;;;;;;5054652;28;20107;-70
2023/10/08 11:01:21;;;;;;;5.45;1.73;;;17.10;99.90;;;;;;5053536;28;20025;-70
2023/10/08 11:03:52;;;;;;;3.85;1.52;;;17.10;99.90;;;;;;5053221;28;20056;-70
2023/10/08 11:06:22;;;;;;;3.10;1.70;;;17.10;99.90;;;;;;5053572;28;20028;-70
2023/10/08 11:08:50;;;;;;;4.88;1.52;;;17.10;99.90;;;;;;5054097;28;20471;-70
2023/10/08 11:11:17;;;;;;;4.43;2.20;;;17.20;99.90;;;;;;5053630;28;20029;-70
2023/10/08 11:13:49;;;;;;;4.75;1.80;;;17.20;99.90;;;;;;5052596;28;20151;-70
2023/10/08 11:16:15;;;;;;;4.57;1.65;;;17.20;99.90;;;;;;5052572;28;20017;-70
2023/10/08 11:18:50;;;;;;;3.72;2.00;;;17.30;99.90;;;;;;5053873;28;20479;-70
2023/10/08 11:21:17;;;;;;;3.95;1.50;;;17.30;99.90;;;;;;5052039;28;20382;-70
2023/10/08 11:23:46;;;;;;;3.63;1.63;;;17.30;99.90;;;;;;5054044;28;20049;-70
2023/10/08 11:26:15;;;;;;;5.18;1.70;;;17.30;99.90;;;;;;5051752;28;20372;-70
2023/10/08 11:28:41;;;;;;;6.60;2.20;;;17.30;99.90;;;;;;5052331;28;20514;-70
2023/10/08 11:31:11;;;;;;;3.53;1.80;;;17.30;99.90;;;;;;5052972;28;20096;-70
2023/10/08 11:33:41;;;;;;;3.20;1.77;;;17.30;99.90;;;;;;5052485;28;20365;-70
2023/10/08 11:36:27;;;;;;;5.40;1.70;;;17.30;99.90;;;;;;5053061;28;20028;-70
2023/10/08 11:39:07;;;;;;;2.03;1.40;;;17.30;99.90;;;;;;5053489;28;20078;-70
2023/10/08 11:41:49;;;;;;;1.75;1.08;;;17.40;99.90;;;;;;5052710;28;20028;-70
2023/10/08 11:44:19;;;;;;;4.05;1.70;;;17.40;99.90;;;;;;5052018;28;20094;-70
2023/10/08 11:46:46;;;;;;;3.40;1.58;;;17.40;99.90;;;;;;5051406;28;20021;-70
2023/10/08 11:49:17;;;;;;;3.13;1.38;;;17.30;99.90;;;;;;5052980;28;20049;-70
2023/10/08 11:51:45;;;;;;;4.07;1.45;;;17.30;99.90;;;;;;5052683;28;20028;-70
2023/10/08 11:54:11;;;;;;;4.03;1.60;;;17.30;99.90;;;;;;5051924;28;20079;-70
2023/10/08 11:56:38;;;;;;;2.55;1.40;;;17.30;99.90;;;;;;5052460;28;20029;-70
2023/10/08 11:59:11;;;;;;;2.67;1.52;;;17.30;99.90;;;;;;5053120;28;20104;-70
2023/10/08 12:01:41;;;;;;;4.97;1.65;;;17.30;99.90;;;;;;5052365;28;20050;-70
2023/10/08 12:04:12;;;;;;;6.05;1.60;;;17.30;99.90;;;;;;5053223;28;20045;-70
2023/10/08 12:06:49;;;;;;;;;;;17.30;99.90;;;;;;5051671;28;20214;-69
2023/10/08 12:09:16;;;;;;;2.90;1.58;;;17.30;99.90;;;;;;5052981;28;19905;-70
2023/10/08 12:11:42;;;;;;;1.77;1.27;;;17.30;99.90;;;;;;5051196;28;20021;-69
2023/10/08 12:14:08;;;;;;;4.93;2.10;;;17.20;99.90;;;;;;5052698;28;20384;-70
2023/10/08 12:16:39;;;;;;;3.10;1.50;;;17.20;99.90;;;;;;5052245;28;20036;-70
2023/10/08 12:19:15;;;;;;;3.15;1.70;;;17.20;99.90;;;;;;5052836;28;20033;-69
2023/10/08 12:21:42;;;;;;;3.85;1.60;;;17.30;99.90;;;;;;5052037;28;20479;-70
2023/10/08 12:24:12;;;;;;;2.28;1.60;;;17.20;99.90;;;;;;5052650;28;20468;-70
2023/10/08 12:26:45;;;;;;;3.57;1.93;;;17.30;99.90;;;;;;5052040;28;20070;-69
2023/10/08 12:29:14;;;;;;;3.40;1.90;;;17.30;99.90;;;;;;5052513;28;20259;-70
2023/10/08 12:31:41;;;;;;;4.32;1.77;;;17.30;99.90;;;;;;5051895;28;20021;-70
2023/10/08 12:34:11;;;;;;;3.13;1.65;;;17.30;99.90;;;;;;5052537;28;20025;-70
2023/10/08 12:36:37;;;;;;;3.50;2.00;;;17.30;99.90;;;;;;5050488;28;20487;-69
2023/10/08 12:39:09;;;;;;;3.90;1.90;;;17.30;99.90;;;;;;5052569;28;20020;-69
2023/10/08 12:41:38;;;;;;;5.85;2.13;;;17.30;99.90;;;;;;5051820;28;20025;-70
2023/10/08 12:44:07;;;;;;;5.18;2.42;;;17.30;99.90;;;;;;5052296;28;20017;-70
2023/10/08 12:46:34;;;;;;;4.80;2.40;;;17.30;99.90;;;;;;5051576;28;20024;-70
2023/10/08 12:49:01;;;;;;;3.15;2.17;;;17.30;99.90;;;;;;5051849;28;20640;-69
2023/10/08 12:51:31;;;;;;;3.10;1.67;;;17.30;99.90;;;;;;5051764;28;20047;-69
2023/10/08 12:54:03;;;;;;;3.92;2.00;;;17.30;99.90;;;;;;5052342;28;20041;-69
2023/10/08 12:56:39;;;;;;;4.97;2.25;;;17.30;99.90;;;;;;5051538;28;20024;-70
2023/10/08 12:59:08;;;;;;;3.17;1.95;;;17.40;99.90;;;;;;5052219;28;20013;-69
2023/10/08 13:01:40;;;;;;;4.45;1.83;;;17.40;99.90;;;;;;5051240;28;20024;-70
2023/10/08 13:04:15;;;;;;;4.20;1.80;;;17.40;99.90;;;;;;5052071;28;20028;-70
2023/10/08 13:06:45;;;;;;;3.35;2.05;;;17.50;99.90;;;;;;5051438;28;20021;-70
2023/10/08 13:09:12;;;;;;;4.07;1.95;;;17.50;99.90;;;;;;5052200;28;20036;-69
2023/10/08 13:11:38;;;;;;;4.35;2.10;;;17.50;99.90;;;;;;5051303;28;20029;-70
2023/10/08 13:14:05;;;;;;;3.95;2.10;;;17.40;99.90;;;;;;5051955;28;20025;-70
2023/10/08 13:16:37;;;;;;;2.75;1.85;;;17.40;99.90;;;;;;5051403;28;20494;-69
2023/10/08 13:19:03;;;;;;;5.10;2.20;;;17.40;99.90;;;;;;5050758;28;20021;-70
2023/10/08 13:21:31;;;;;;;8.80;4.78;;;17.30;99.90;;;;;;5051298;28;20036;-70
2023/10/08 13:23:58;;;;;;;5.78;3.88;;;17.40;99.90;;;;;;5050596;28;20036;-70
2023/10/08 13:26:26;;;;;;;5.43;3.30;;;17.40;99.90;;;;;;5051199;28;20368;-70
2023/10/08 13:28:54;;;;;;;3.80;2.50;;;17.30;99.90;;;;;;5051929;28;20107;-70
2023/10/08 13:31:21;;;;;;;5.30;2.60;;;17.30;99.90;;;;;;5051415;28;20095;-69
2023/10/08 13:33:48;;;;;;;4.32;2.53;;;17.30;99.90;;;;;;5052014;28;20028;-69
2023/10/08 13:36:15;;;;;;;4.38;2.53;;;17.30;99.90;;;;;;5051297;28;20025;-69
2023/10/08 13:38:41;;;;;;;3.65;2.42;;;17.30;99.90;;;;;;5052883;28;20013;-70
2023/10/08 13:41:18;;;;;;;3.08;2.47;;;17.30;99.90;;;;;;5055309;28;20029;-70
2023/10/08 13:43:51;;;;;;;3.47;2.00;;;17.40;99.90;;;;;;5055675;28;20111;-69
2023/10/08 13:46:18;;;;;;;5.28;2.40;;;17.40;99.90;;;;;;5055356;28;20029;-70
2023/10/08 13:48:50;;;;;;;3.67;1.80;;;17.40;99.90;;;;;;5055150;28;20391;-70
2023/10/08 13:51:25;;;;;;;6.20;2.10;;;17.40;99.90;;;;;;5055130;28;20060;-69
2023/10/08 13:53:59;;;;;;;3.13;1.73;;;17.50;99.90;;;;;;5055380;28;20024;-69
2023/10/08 13:56:30;;;;;;;5.13;2.25;;;17.50;99.90;;;;;;5054766;28;20053;-69
2023/10/08 13:59:11;;;;;;;3.83;2.03;;;17.50;99.90;;;;;;5054148;28;20029;-70
2023/10/08 14:01:40;;;;;;;3.72;1.60;;;17.50;99.90;;;;;;5053368;28;20021;-70
2023/10/08 14:04:07;;;;;;;2.58;1.83;;;17.50;99.90;;;;;;5053999;28;20394;-69
2023/10/08 14:06:34;;;;;;;2.85;1.80;;;17.50;99.90;;;;;;5054518;28;20021;-70